Latest Coastal Weather Observations for Wilsons Promontory

IDV60701

Issued at 8:11 am EDT Monday 2 February 2015 (issued every 10 minutes, with the page automatically refreshed every 10 minutes)

About coastal observations | Map of coastal stations | Coastal observations for VIC | Marine services | Other Formats
Station Details ID: 085096 Name: WILSONS PROMONTORY LIGHTHOUSE Lat: -39.13 Lon: 146.42 Height: 95.0 m
Data from the previous 72 hours. | See also: Recent months at Wilsons Promontory
Date/Time
EDT
Temp

°C
Wind Pressure Rain
since 9am
mm
Weather Cloud Vis
km
Sea
Height
m
Swell
Dir
 
Speed
knots
Gust
knots
hPa Trend Height
m
Period
s
Dir
02/08:00am 16.5 ENE 4 6 1018.0 - 0.0 - - - - - - -
02/07:30am 16.3 NW 3 5 1017.6 - 0.0 - - - - - - -
02/07:00am 16.1 CALM 0 0 1017.4 - 0.0 - - - - - - -
02/06:30am 15.9 CALM 0 0 1016.9 - 0.0 - - - - - - -
02/06:00am 15.8 WNW 4 6 1016.5 - 0.0 - - - - - - -
02/05:30am 15.7 W 5 6 1016.3 - 0.0 - - - - - - -
02/05:00am 15.6 N 5 6 1016.0 - 0.0 - - - - - - -
02/04:30am 15.6 NNE 5 6 1015.7 - 0.0 - - - - - - -
02/04:00am 15.7 NNE 6 8 1015.6 - 0.0 - - - - - - -
02/03:30am 15.8 NNE 6 8 1015.6 - 0.0 - - - - - - -
02/03:00am 16.1 NNE 7 10 1015.5 - 0.0 - - - - - - -
02/02:30am 16.3 N 7 11 1015.8 - 0.0 - - - - - - -
02/02:00am 16.5 N 8 11 1016.0 - 0.0 - - - - - - -
02/01:30am 16.6 N 7 10 1016.0 - 0.0 - - - - - - -
02/01:00am 16.6 NNE 6 8 1016.1 - 0.0 - - - - - - -
02/12:30am 16.6 NNE 8 11 1016.3 - 0.0 - - - - - - -
02/12:00am 16.8 NE 7 11 1016.0 - 0.0 - - - - - - -
 
Date/Time
EDT
Temp

°C
Wind Pressure Rain
since 9am
mm
Weather Cloud Vis
km
Sea
Height
m
Swell
Dir
 
Speed
knots
Gust
knots
hPa Trend Height
m
Period
s
Dir
01/11:30pm 16.8 NNE 8 12 1015.9 - 0.0 - - - - - - -
01/11:00pm 16.8 NE 7 11 1015.8 - 0.0 - - - - - - -
01/10:30pm 16.7 NE 8 11 1015.7 - 0.0 - - - - - - -
01/10:00pm 16.7 NNE 9 13 1015.3 - 0.0 - - - - - - -
01/09:30pm 16.7 NE 11 14 1015.0 - 0.0 - - - - - - -
01/09:00pm 16.7 NE 10 12 1014.6 - 0.0 - - - - - - -
01/08:30pm 16.9 NE 9 11 1014.5 - 0.0 - - - - - - -
01/08:00pm 17.4 NE 8 10 1014.4 - 0.0 - - - - - - -
01/07:30pm 17.6 NE 7 9 1014.1 - 0.0 - - - - - - -
01/07:00pm 17.4 ENE 6 8 1013.8 - 0.0 - - - - - - -
01/06:30pm 17.9 NE 6 8 1013.5 - 0.0 - - - - - - -
01/06:00pm 18.4 NE 6 8 1013.0 - 0.0 - - - - - - -
01/05:30pm 18.3 NE 7 9 1013.0 - 0.0 - - - - - - -
01/05:00pm 18.8 NE 8 10 1012.7 - 0.0 - - - - - - -
01/04:30pm 19.1 NE 8 11 1012.8 - 0.0 - - - - - - -
01/04:00pm 19.6 NE 7 9 1012.8 - 0.0 - - - - - - -
01/03:30pm 19.5 NE 7 9 1012.9 - 0.0 - - - - - - -
01/03:00pm 19.6 NE 8 10 1012.6 - 0.0 - - - - - - -
01/02:30pm 19.3 ENE 8 10 1012.9 - 0.0 - - - - - - -
01/02:00pm 18.6 SE 8 10 1012.9 - 0.0 - - - - - - -
01/01:30pm 19.6 SSE 9 11 1012.9 - 0.0 - - - - - - -
01/01:00pm 19.6 SW 10 12 1012.8 - 0.0 - - - - - - -
01/12:30pm 19.0 SW 11 13 1012.7 - 0.0 - - - - - - -
01/12:00pm 18.5 SW 13 14 1012.5 - 0.0 - - - - - - -
01/11:30am 18.1 WSW 13 15 1012.6 - 0.0 - - - - - - -
01/11:00am 17.5 WSW 14 17 1012.4 - 0.0 - - - - - - -
01/10:30am 17.4 WSW 15 17 1012.0 - 0.0 - - - - - - -
01/10:00am 17.2 WSW 14 18 1011.8 - 0.0 - - - - - - -
01/09:30am 17.2 W 11 16 1011.6 - 0.0 - - - - - - -
01/09:00am 18.0 W 12 19 1011.2 - 0.0 - - - - - - -
01/08:30am 16.9 W 10 15 1011.1 - 0.0 - - - - - - -
01/08:00am 16.7 W 12 19 1010.8 - 0.0 - - - - - - -
01/07:30am 16.3 WNW 16 21 1010.5 - 0.0 - - - - - - -
01/07:00am 16.1 WNW 12 19 1010.1 - 0.0 - - - - - - -
01/06:30am 15.9 WNW 16 21 1009.8 - 0.0 - - - - - - -
01/06:00am 15.9 NW 12 18 1009.4 - 0.0 - - - - - - -
01/05:30am 15.8 NW 13 21 1009.4 - 0.0 - - - - - - -
01/05:00am 16.0 WNW 16 22 1009.2 - 0.0 - - - - - - -
01/04:31am 15.8 NW 15 27 1009.0 - 0.0 - - - - - - -
01/04:30am 15.8 NW 14 24 1009.1 - 0.0 - - - - - - -
01/04:00am 15.6 NW 13 23 1009.5 - 0.0 - - - - - - -
01/03:30am 15.7 W 18 25 1009.6 - 0.0 - - - - - - -
01/03:06am 15.7 W 19 29 1009.5 - 0.0 - - - - - - -
01/03:00am 15.8 W 20 29 1009.2 - 0.0 - - - - - - -
01/02:50am 15.8 W 20 30 1009.6 - 0.0 - - - - - - -
01/02:30am 15.8 W 21 28 1009.5 - 0.0 - - - - - - -
01/02:00am 15.7 W 20 30 1009.2 - 0.0 - - - - - - -
01/01:46am 15.8 W 20 30 1009.2 - 0.0 - - - - - - -
01/01:30am 15.8 W 22 30 1009.3 - 0.0 - - - - - - -
01/01:00am 15.8 WNW 18 29 1009.5 - 0.0 - - - - - - -
01/12:54am 15.8 WNW 15 26 1009.7 - 0.0 - - - - - - -
01/12:30am 15.9 W 11 24 1009.7 - 0.0 - - - - - - -
01/12:00am 16.0 WNW 15 27 1009.5 - 0.0 - - - - - - -
 
Date/Time
EDT
Temp

°C
Wind Pressure Rain
since 9am
mm
Weather Cloud Vis
km
Sea
Height
m
Swell
Dir
 
Speed
knots
Gust
knots
hPa Trend Height
m
Period
s
Dir
31/11:30pm 16.3 WNW 17 30 1010.0 - 0.0 - - - - - - -
31/11:00pm 16.2 WNW 20 31 1010.1 - 0.0 - - - - - - -
31/10:35pm 16.3 WNW 22 32 1010.0 - 0.0 - - - - - - -
31/10:30pm 16.4 NW 24 32 1010.0 - 0.0 - - - - - - -
31/10:16pm 16.3 NW 26 36 1010.0 - 0.0 - - - - - - -
31/10:00pm 16.3 WNW 30 37 1009.6 - 0.0 - - - - - - -
31/09:30pm 16.2 WNW 28 34 1009.5 - 0.0 - - - - - - -
31/09:00pm 16.0 WNW 23 33 1009.5 - 0.0 - - - - - - -
31/08:30pm 16.0 NW 25 35 1009.1 - 0.0 - - - - - - -
31/08:00pm 16.6 NW 21 31 1009.2 - 0.0 - - - - - - -
31/07:30pm 17.1 WNW 15 25 1009.2 - 0.0 - - - - - - -
31/07:21pm 17.2 WNW 15 25 1009.2 - 0.0 - - - - - - -
31/07:00pm 17.6 N 8 23 1009.1 - 0.0 - - - - - - -
31/06:30pm 18.4 WNW 12 23 1008.8 - 0.0 - - - - - - -
31/06:03pm 18.2 W 18 28 1009.0 - 0.0 - - - - - - -
31/06:00pm 18.2 W 19 28 1008.7 - 0.0 - - - - - - -
31/05:30pm 17.8 W 18 28 1009.2 - 0.0 - - - - - - -
31/05:02pm 17.8 W 16 27 1009.3 - 0.0 - - - - - - -
31/05:00pm 17.7 W 15 24 1009.3 - 0.0 - - - - - - -
31/04:30pm 17.9 W 15 23 1009.3 - 0.0 - - - - - - -
31/04:00pm 18.0 W 18 25 1009.2 - 0.0 - - - - - - -
31/03:30pm 18.6 W 16 23 1009.4 - 0.0 - - - - - - -
31/03:00pm 19.3 W 16 21 1009.2 - 0.0 - - - - - - -
31/02:30pm 17.8 W 11 18 1009.4 - 0.0 - - - - - - -
31/02:00pm 18.3 W 15 21 1009.5 - 0.0 - - - - - - -
31/01:30pm 17.7 WSW 16 21 1009.7 - 0.0 - - - - - - -
31/01:00pm 18.5 W 16 19 1009.9 - 0.0 - - - - - - -
31/12:30pm 17.4 WSW 15 19 1009.8 - 0.0 - - - - - - -
31/12:00pm 17.6 WSW 13 17 1009.9 - 0.0 - - - - - - -
31/11:30am 17.8 WSW 14 16 1010.2 - 0.0 - - - - - - -
31/11:00am 17.1 SW 14 15 1010.3 - 0.0 - - - - - - -
31/10:30am 17.1 WSW 11 15 1010.2 - 0.0 - - - - - - -
31/10:00am 17.4 WSW 11 14 1010.1 - 0.0 - - - - - - -
31/09:30am 16.8 SW 11 14 1010.3 - 0.0 - - - - - - -
31/09:00am 16.6 SW 12 17 1009.9 - 0.0 - - - - - - -
31/08:30am 16.5 WSW 14 16 1010.0 - 0.0 - - - - - - -
31/08:00am 16.2 WSW 13 14 1009.9 - 0.0 - - - - - - -
31/07:30am 16.0 WSW 9 11 1009.7 - 0.0 - - - - - - -
31/07:00am 16.0 WSW 10 13 1009.6 - 0.0 - - - - - - -
31/06:30am 15.8 W 9 11 1009.4 - 0.0 - - - - - - -
31/06:00am 16.0 SW 10 12 1009.2 - 0.0 - - - - - - -
31/05:30am 15.9 W 11 13 1009.1 - 0.0 - - - - - - -
31/05:00am 15.6 W 9 11 1008.9 - 0.0 - - - - - - -
31/04:30am 15.7 W 9 12 1009.2 - 0.0 - - - - - - -
31/04:00am 15.7 W 10 13 1009.3 - 0.0 - - - - - - -
31/03:30am 15.7 W 11 14 1009.5 - 0.0 - - - - - - -
31/03:00am 15.6 W 12 15 1009.5 - 0.0 - - - - - - -
31/02:30am 15.3 W 12 16 1009.8 - 0.0 - - - - - - -
31/02:00am 15.1 WNW 14 17 1010.1 - 0.0 - - - - - - -
31/01:30am 15.0 WNW 13 17 1010.4 - 0.0 - - - - - - -
31/01:00am 15.0 WNW 13 16 1010.8 - 0.0 - - - - - - -
31/12:30am 15.0 W 13 17 1011.0 - 0.0 - - - - - - -
31/12:00am 14.9 WNW 13 16 1011.1 - 0.0 - - - - - - -
 
Date/Time
EDT
Temp

°C
Wind Pressure Rain
since 9am
mm
Weather Cloud Vis
km
Sea
Height
m
Swell
Dir
 
Speed
knots
Gust
knots
hPa Trend Height
m
Period
s
Dir
30/11:30pm 15.0 W 13 16 1011.6 - 0.0 - - - - - - -
30/11:00pm 15.3 W 12 16 1011.8 - 0.0 - - - - - - -
30/10:30pm 15.7 W 13 18 1011.9 - 0.0 - - - - - - -
30/10:00pm 15.8 W 12 18 1012.1 - 0.0 - - - - - - -
30/09:30pm 15.8 W 13 17 1012.0 - 0.0 - - - - - - -
30/09:00pm 15.8 W 15 20 1011.8 - 0.0 - - - - - - -
30/08:30pm 15.9 W 14 19 1012.0 - 0.0 - - - - - - -
30/08:00pm 15.9 WSW 18 24 1011.9 - 0.0 - - - - - - -
30/07:30pm 15.8 WSW 18 25 1012.0 - 0.0 - - - - - - -
30/07:00pm 15.8 WSW 18 22 1012.1 - 0.0 - - - - - - -
30/06:30pm 15.8 SW 19 23 1012.2 - 0.0 - - - - - - -
30/06:00pm 15.9 SW 18 23 1012.2 - 0.0 - - - - - - -
30/05:40pm 15.7 SW 15 25 1012.5 - 0.0 - - - - - - -
30/05:30pm 15.8 SW 21 26 1012.5 - 0.0 - - - - - - -
30/05:21pm 15.9 SW 16 26 1012.6 - 0.0 - - - - - - -
30/05:00pm 15.7 W 12 19 1012.7 - 0.0 - - - - - - -
30/04:37pm 16.0 SW 15 25 1012.9 - 0.0 - - - - - - -
30/04:30pm 15.9 SW 14 24 1012.9 - 0.0 - - - - - - -
30/04:00pm 16.1 SW 8 16 1013.6 - 0.0 - - - - - - -
30/03:30pm 16.0 W 8 14 1013.7 - 0.0 - - - - - - -
30/03:00pm 16.0 W 7 12 1013.6 - 0.0 - - - - - - -
30/02:30pm 16.4 SW 12 16 1014.1 - 0.0 - - - - - - -
30/02:00pm 16.7 SW 8 15 1014.3 - 0.0 - - - - - - -
30/01:30pm 16.5 SW 9 14 1014.5 - 0.0 - - - - - - -
30/01:00pm 17.0 SW 10 14 1014.7 - 0.0 - - - - - - -
30/12:30pm 16.9 SW 5 8 1014.9 - 0.0 - - - - - - -
30/12:00pm 15.7 N 5 9 1015.1 - 0.0 - - - - - - -
30/11:30am 15.6 SSW 7 11 1015.4 - 0.0 - - - - - - -
30/11:00am 14.9 SW 7 11 1015.6 - 0.0 - - - - - - -
30/10:30am 14.8 S 10 15 1015.7 - 0.0 - - - - - - -
30/10:00am 14.9 SSE 13 18 1015.8 - 0.0 - - - - - - -
30/09:30am 15.0 S 8 18 1015.8 - 0.0 - - - - - - -
30/09:00am 14.6 SSE 15 19 1015.7 - 1.4 - - - - - - -
30/08:30am 14.9 SSE 16 20 1015.8 - 1.4 - - - - - - -

Other Formats:

Comma delimited format used in spreadsheet applications
http://www.bom.gov.au/fwo/IDV60701/IDV60701.94893.axf

JavaScript Object Notation format (JSON) in row-major order
http://www.bom.gov.au/fwo/IDV60701/IDV60701.94893.json